sensor_id;sensor_type;location;lat;lon;timestamp;temperature;humidity
19192;DHT22;9728;48.194;16.346;2022-09-03T00:00:04;25.00;32.20
19192;DHT22;9728;48.194;16.346;2022-09-03T00:05:17;24.90;32.40
19192;DHT22;9728;48.194;16.346;2022-09-03T00:10:27;24.80;32.70
19192;DHT22;9728;48.194;16.346;2022-09-03T00:15:33;24.80;32.70
19192;DHT22;9728;48.194;16.346;2022-09-03T00:20:42;24.70;32.60
19192;DHT22;9728;48.194;16.346;2022-09-03T00:25:51;24.70;32.80
19192;DHT22;9728;48.194;16.346;2022-09-03T00:31:01;24.60;32.90
19192;DHT22;9728;48.194;16.346;2022-09-03T00:36:14;24.60;33.80
19192;DHT22;9728;48.194;16.346;2022-09-03T00:41:26;24.50;33.20
19192;DHT22;9728;48.194;16.346;2022-09-03T00:46:36;24.40;33.30
19192;DHT22;9728;48.194;16.346;2022-09-03T00:51:49;24.40;33.20
19192;DHT22;9728;48.194;16.346;2022-09-03T00:57:05;24.40;33.50
19192;DHT22;9728;48.194;16.346;2022-09-03T01:02:16;24.30;33.70
19192;DHT22;9728;48.194;16.346;2022-09-03T01:07:31;24.20;33.70
19192;DHT22;9728;48.194;16.346;2022-09-03T01:12:42;24.20;33.90
19192;DHT22;9728;48.194;16.346;2022-09-03T01:17:59;24.20;33.80
19192;DHT22;9728;48.194;16.346;2022-09-03T01:29:14;24.00;34.30
19192;DHT22;9728;48.194;16.346;2022-09-03T01:34:29;24.00;34.50
19192;DHT22;9728;48.194;16.346;2022-09-03T01:39:44;24.00;34.60
19192;DHT22;9728;48.194;16.346;2022-09-03T01:45:09;23.90;34.60
19192;DHT22;9728;48.194;16.346;2022-09-03T01:50:27;23.90;35.50
19192;DHT22;9728;48.194;16.346;2022-09-03T01:55:45;23.90;34.80
19192;DHT22;9728;48.194;16.346;2022-09-03T02:01:00;23.80;34.80
19192;DHT22;9728;48.194;16.346;2022-09-03T02:06:06;23.80;34.80
19192;DHT22;9728;48.194;16.346;2022-09-03T02:11:09;23.80;34.50
19192;DHT22;9728;48.194;16.346;2022-09-03T02:16:16;23.70;35.30
19192;DHT22;9728;48.194;16.346;2022-09-03T02:21:23;23.70;34.90
19192;DHT22;9728;48.194;16.346;2022-09-03T02:26:26;23.60;34.80
19192;DHT22;9728;48.194;16.346;2022-09-03T02:31:31;23.60;34.90
19192;DHT22;9728;48.194;16.346;2022-09-03T02:36:36;23.50;35.00
19192;DHT22;9728;48.194;16.346;2022-09-03T02:41:40;23.50;35.00
19192;DHT22;9728;48.194;16.346;2022-09-03T02:46:51;23.40;35.00
19192;DHT22;9728;48.194;16.346;2022-09-03T02:51:58;23.40;35.50
19192;DHT22;9728;48.194;16.346;2022-09-03T02:57:02;23.40;35.40
19192;DHT22;9728;48.194;16.346;2022-09-03T03:02:07;23.30;35.30
19192;DHT22;9728;48.194;16.346;2022-09-03T03:07:10;23.30;35.60
19192;DHT22;9728;48.194;16.346;2022-09-03T03:12:13;23.20;35.50
19192;DHT22;9728;48.194;16.346;2022-09-03T03:17:19;23.20;35.60
19192;DHT22;9728;48.194;16.346;2022-09-03T03:22:23;23.20;35.80
19192;DHT22;9728;48.194;16.346;2022-09-03T03:27:27;23.20;35.90
19192;DHT22;9728;48.194;16.346;2022-09-03T03:32:31;23.10;35.90
19192;DHT22;9728;48.194;16.346;2022-09-03T03:37:34;23.00;36.00
19192;DHT22;9728;48.194;16.346;2022-09-03T03:42:38;23.00;35.90
19192;DHT22;9728;48.194;16.346;2022-09-03T03:47:43;23.00;36.10
19192;DHT22;9728;48.194;16.346;2022-09-03T03:52:46;22.90;36.30
19192;DHT22;9728;48.194;16.346;2022-09-03T03:57:49;22.90;36.30
19192;DHT22;9728;48.194;16.346;2022-09-03T04:02:54;22.80;36.40
19192;DHT22;9728;48.194;16.346;2022-09-03T04:08:00;22.80;36.60
19192;DHT22;9728;48.194;16.346;2022-09-03T04:13:04;22.80;36.90
19192;DHT22;9728;48.194;16.346;2022-09-03T04:18:09;22.70;36.70
19192;DHT22;9728;48.194;16.346;2022-09-03T04:23:12;22.60;36.90
19192;DHT22;9728;48.194;16.346;2022-09-03T04:28:16;22.60;36.90
19192;DHT22;9728;48.194;16.346;2022-09-03T04:33:20;22.50;37.00
19192;DHT22;9728;48.194;16.346;2022-09-03T04:38:28;22.50;37.30
19192;DHT22;9728;48.194;16.346;2022-09-03T04:43:33;22.50;37.50
19192;DHT22;9728;48.194;16.346;2022-09-03T04:48:39;22.50;37.40
19192;DHT22;9728;48.194;16.346;2022-09-03T04:53:45;22.40;37.60
19192;DHT22;9728;48.194;16.346;2022-09-03T04:58:53;22.40;37.60
19192;DHT22;9728;48.194;16.346;2022-09-03T05:03:59;22.40;38.00
19192;DHT22;9728;48.194;16.346;2022-09-03T05:09:03;22.40;37.80
19192;DHT22;9728;48.194;16.346;2022-09-03T05:14:07;22.30;37.80
19192;DHT22;9728;48.194;16.346;2022-09-03T05:19:14;22.30;37.90
19192;DHT22;9728;48.194;16.346;2022-09-03T05:24:17;22.30;38.10
19192;DHT22;9728;48.194;16.346;2022-09-03T05:29:20;22.30;38.10
19192;DHT22;9728;48.194;16.346;2022-09-03T05:34:26;22.30;38.20
19192;DHT22;9728;48.194;16.346;2022-09-03T05:39:30;22.20;38.30
19192;DHT22;9728;48.194;16.346;2022-09-03T05:44:33;22.30;38.50
19192;DHT22;9728;48.194;16.346;2022-09-03T05:49:38;22.20;38.50
19192;DHT22;9728;48.194;16.346;2022-09-03T05:54:41;22.30;38.90
19192;DHT22;9728;48.194;16.346;2022-09-03T05:59:45;22.30;38.80
19192;DHT22;9728;48.194;16.346;2022-09-03T06:04:49;22.30;38.90
19192;DHT22;9728;48.194;16.346;2022-09-03T06:09:53;22.30;39.20
19192;DHT22;9728;48.194;16.346;2022-09-03T06:14:56;22.30;39.10
19192;DHT22;9728;48.194;16.346;2022-09-03T06:20:01;22.30;39.20
19192;DHT22;9728;48.194;16.346;2022-09-03T06:25:05;22.30;39.40
19192;DHT22;9728;48.194;16.346;2022-09-03T06:30:09;22.30;39.40
19192;DHT22;9728;48.194;16.346;2022-09-03T06:35:15;22.40;39.60
19192;DHT22;9728;48.194;16.346;2022-09-03T06:40:18;22.40;39.80
19192;DHT22;9728;48.194;16.346;2022-09-03T06:45:23;22.50;39.80
19192;DHT22;9728;48.194;16.346;2022-09-03T06:50:28;22.60;39.70
19192;DHT22;9728;48.194;16.346;2022-09-03T06:55:35;22.70;40.00
19192;DHT22;9728;48.194;16.346;2022-09-03T07:00:40;22.80;39.90
19192;DHT22;9728;48.194;16.346;2022-09-03T07:05:47;22.90;41.00
19192;DHT22;9728;48.194;16.346;2022-09-03T07:10:50;23.20;41.90
19192;DHT22;9728;48.194;16.346;2022-09-03T07:16:00;23.60;41.90
19192;DHT22;9728;48.194;16.346;2022-09-03T07:21:06;24.00;41.90
19192;DHT22;9728;48.194;16.346;2022-09-03T07:26:13;24.60;41.50
19192;DHT22;9728;48.194;16.346;2022-09-03T07:31:17;25.00;40.90
19192;DHT22;9728;48.194;16.346;2022-09-03T07:36:26;25.50;41.00
19192;DHT22;9728;48.194;16.346;2022-09-03T07:41:36;25.80;39.80
19192;DHT22;9728;48.194;16.346;2022-09-03T07:46:40;26.20;39.20
19192;DHT22;9728;48.194;16.346;2022-09-03T07:51:46;26.50;38.60
19192;DHT22;9728;48.194;16.346;2022-09-03T07:56:51;26.60;38.30
19192;DHT22;9728;48.194;16.346;2022-09-03T08:01:57;26.80;38.10
19192;DHT22;9728;48.194;16.346;2022-09-03T08:07:01;26.80;37.90
19192;DHT22;9728;48.194;16.346;2022-09-03T08:12:05;26.90;37.90
19192;DHT22;9728;48.194;16.346;2022-09-03T08:17:08;26.90;37.70
19192;DHT22;9728;48.194;16.346;2022-09-03T08:22:14;27.00;37.60
19192;DHT22;9728;48.194;16.346;2022-09-03T08:27:18;27.00;37.80
19192;DHT22;9728;48.194;16.346;2022-09-03T08:32:26;27.10;38.00
19192;DHT22;9728;48.194;16.346;2022-09-03T08:37:31;27.20;38.20
19192;DHT22;9728;48.194;16.346;2022-09-03T08:42:48;27.30;38.10
19192;DHT22;9728;48.194;16.346;2022-09-03T08:48:00;27.50;37.90
19192;DHT22;9728;48.194;16.346;2022-09-03T08:53:11;27.70;37.80
19192;DHT22;9728;48.194;16.346;2022-09-03T08:58:18;27.90;37.70
19192;DHT22;9728;48.194;16.346;2022-09-03T09:03:42;28.00;38.00
19192;DHT22;9728;48.194;16.346;2022-09-03T09:08:58;28.20;38.30
19192;DHT22;9728;48.194;16.346;2022-09-03T09:14:10;28.40;38.20
19192;DHT22;9728;48.194;16.346;2022-09-03T09:19:30;28.60;37.70
19192;DHT22;9728;48.194;16.346;2022-09-03T09:24:42;28.80;37.40
19192;DHT22;9728;48.194;16.346;2022-09-03T09:29:48;29.10;37.00
19192;DHT22;9728;48.194;16.346;2022-09-03T09:34:53;29.30;36.70
19192;DHT22;9728;48.194;16.346;2022-09-03T09:39:59;29.40;36.20
19192;DHT22;9728;48.194;16.346;2022-09-03T09:45:08;29.60;36.10
19192;DHT22;9728;48.194;16.346;2022-09-03T09:50:17;29.80;36.00
19192;DHT22;9728;48.194;16.346;2022-09-03T09:55:28;29.90;36.10
19192;DHT22;9728;48.194;16.346;2022-09-03T10:00:32;30.20;36.00
19192;DHT22;9728;48.194;16.346;2022-09-03T10:05:38;30.40;36.10
19192;DHT22;9728;48.194;16.346;2022-09-03T10:10:45;30.70;35.70
19192;DHT22;9728;48.194;16.346;2022-09-03T10:15:56;30.90;35.30
19192;DHT22;9728;48.194;16.346;2022-09-03T10:21:03;31.20;35.00
19192;DHT22;9728;48.194;16.346;2022-09-03T10:26:12;31.50;35.00
19192;DHT22;9728;48.194;16.346;2022-09-03T10:31:44;31.70;34.90
19192;DHT22;9728;48.194;16.346;2022-09-03T10:37:00;32.10;34.30
19192;DHT22;9728;48.194;16.346;2022-09-03T10:42:16;32.50;34.30
19192;DHT22;9728;48.194;16.346;2022-09-03T10:47:40;32.80;33.60
19192;DHT22;9728;48.194;16.346;2022-09-03T10:52:58;33.10;33.00
19192;DHT22;9728;48.194;16.346;2022-09-03T10:58:23;33.40;32.80
19192;DHT22;9728;48.194;16.346;2022-09-03T11:03:45;33.70;32.20
19192;DHT22;9728;48.194;16.346;2022-09-03T11:08:54;34.00;31.80
19192;DHT22;9728;48.194;16.346;2022-09-03T11:14:10;34.10;31.90
19192;DHT22;9728;48.194;16.346;2022-09-03T11:19:16;34.30;31.70
19192;DHT22;9728;48.194;16.346;2022-09-03T11:24:22;34.50;31.40
19192;DHT22;9728;48.194;16.346;2022-09-03T11:29:32;34.60;31.40
19192;DHT22;9728;48.194;16.346;2022-09-03T11:34:48;34.80;30.90
19192;DHT22;9728;48.194;16.346;2022-09-03T11:39:57;35.00;30.50
19192;DHT22;9728;48.194;16.346;2022-09-03T11:45:20;35.20;30.10
19192;DHT22;9728;48.194;16.346;2022-09-03T11:50:25;35.30;29.80
19192;DHT22;9728;48.194;16.346;2022-09-03T11:55:30;35.40;30.30
19192;DHT22;9728;48.194;16.346;2022-09-03T12:00:47;35.60;30.00
19192;DHT22;9728;48.194;16.346;2022-09-03T12:06:10;35.70;29.40
19192;DHT22;9728;48.194;16.346;2022-09-03T12:11:29;35.80;29.00
19192;DHT22;9728;48.194;16.346;2022-09-03T12:22:12;35.60;28.30
19192;DHT22;9728;48.194;16.346;2022-09-03T12:27:19;35.50;28.70
19192;DHT22;9728;48.194;16.346;2022-09-03T12:32:29;35.40;28.70
19192;DHT22;9728;48.194;16.346;2022-09-03T12:37:36;35.30;28.40
19192;DHT22;9728;48.194;16.346;2022-09-03T12:43:12;35.10;28.80
19192;DHT22;9728;48.194;16.346;2022-09-03T12:48:37;35.10;28.80
19192;DHT22;9728;48.194;16.346;2022-09-03T12:53:45;35.10;29.00
19192;DHT22;9728;48.194;16.346;2022-09-03T12:58:52;35.00;29.60
19192;DHT22;9728;48.194;16.346;2022-09-03T13:04:03;35.00;29.10
19192;DHT22;9728;48.194;16.346;2022-09-03T13:09:12;35.00;29.10
19192;DHT22;9728;48.194;16.346;2022-09-03T13:14:16;35.00;28.80
19192;DHT22;9728;48.194;16.346;2022-09-03T13:19:28;35.10;28.80
19192;DHT22;9728;48.194;16.346;2022-09-03T13:24:45;35.10;28.80
19192;DHT22;9728;48.194;16.346;2022-09-03T13:30:06;35.10;28.40
19192;DHT22;9728;48.194;16.346;2022-09-03T13:35:20;35.10;28.40
19192;DHT22;9728;48.194;16.346;2022-09-03T13:40:32;35.10;28.50
19192;DHT22;9728;48.194;16.346;2022-09-03T13:45:40;35.10;28.20
19192;DHT22;9728;48.194;16.346;2022-09-03T13:50:50;35.10;28.30
19192;DHT22;9728;48.194;16.346;2022-09-03T13:56:04;35.00;28.10
19192;DHT22;9728;48.194;16.346;2022-09-03T14:01:14;34.80;27.90
19192;DHT22;9728;48.194;16.346;2022-09-03T14:06:36;34.60;27.90
19192;DHT22;9728;48.194;16.346;2022-09-03T14:11:51;34.50;27.80
19192;DHT22;9728;48.194;16.346;2022-09-03T14:17:00;34.30;28.00
19192;DHT22;9728;48.194;16.346;2022-09-03T14:22:08;34.20;28.20
19192;DHT22;9728;48.194;16.346;2022-09-03T14:27:21;34.10;28.30
19192;DHT22;9728;48.194;16.346;2022-09-03T14:32:40;34.00;28.20
19192;DHT22;9728;48.194;16.346;2022-09-03T14:38:10;34.00;28.40
19192;DHT22;9728;48.194;16.346;2022-09-03T14:43:27;33.80;28.30
19192;DHT22;9728;48.194;16.346;2022-09-03T14:48:48;33.70;28.30
19192;DHT22;9728;48.194;16.346;2022-09-03T15:05:09;33.20;28.80
19192;DHT22;9728;48.194;16.346;2022-09-03T15:10:20;33.10;28.90
19192;DHT22;9728;48.194;16.346;2022-09-03T15:15:35;33.00;29.00
19192;DHT22;9728;48.194;16.346;2022-09-03T15:20:49;32.90;29.10
19192;DHT22;9728;48.194;16.346;2022-09-03T15:31:47;32.70;29.50
19192;DHT22;9728;48.194;16.346;2022-09-03T15:36:54;32.70;29.70
19192;DHT22;9728;48.194;16.346;2022-09-03T15:42:08;32.60;29.70
19192;DHT22;9728;48.194;16.346;2022-09-03T15:47:34;32.50;29.60
19192;DHT22;9728;48.194;16.346;2022-09-03T15:52:57;32.50;30.00
19192;DHT22;9728;48.194;16.346;2022-09-03T15:58:06;32.40;29.80
19192;DHT22;9728;48.194;16.346;2022-09-03T16:03:13;32.30;30.20
19192;DHT22;9728;48.194;16.346;2022-09-03T16:08:33;32.30;30.20
19192;DHT22;9728;48.194;16.346;2022-09-03T16:13:49;32.20;30.40
19192;DHT22;9728;48.194;16.346;2022-09-03T16:19:02;32.20;30.70
19192;DHT22;9728;48.194;16.346;2022-09-03T16:24:15;32.10;30.70
19192;DHT22;9728;48.194;16.346;2022-09-03T16:29:25;32.00;30.80
19192;DHT22;9728;48.194;16.346;2022-09-03T16:34:37;32.00;31.10
19192;DHT22;9728;48.194;16.346;2022-09-03T16:39:51;32.00;31.30
19192;DHT22;9728;48.194;16.346;2022-09-03T16:45:04;31.90;31.40
19192;DHT22;9728;48.194;16.346;2022-09-03T16:50:21;31.80;31.40
19192;DHT22;9728;48.194;16.346;2022-09-03T16:55:32;31.80;31.30
19192;DHT22;9728;48.194;16.346;2022-09-03T17:00:48;31.70;31.60
19192;DHT22;9728;48.194;16.346;2022-09-03T17:06:13;31.70;31.40
19192;DHT22;9728;48.194;16.346;2022-09-03T17:11:31;31.70;31.70
19192;DHT22;9728;48.194;16.346;2022-09-03T17:16:51;31.60;31.70
19192;DHT22;9728;48.194;16.346;2022-09-03T17:22:09;31.60;31.90
19192;DHT22;9728;48.194;16.346;2022-09-03T17:27:34;31.60;32.20
19192;DHT22;9728;48.194;16.346;2022-09-03T17:33:24;31.50;32.40
19192;DHT22;9728;48.194;16.346;2022-09-03T17:39:03;31.50;32.40
19192;DHT22;9728;48.194;16.346;2022-09-03T17:44:14;31.40;32.20
19192;DHT22;9728;48.194;16.346;2022-09-03T17:49:24;31.50;32.20
19192;DHT22;9728;48.194;16.346;2022-09-03T17:54:39;31.40;32.10
19192;DHT22;9728;48.194;16.346;2022-09-03T17:59:48;31.40;32.10
19192;DHT22;9728;48.194;16.346;2022-09-03T18:04:58;31.30;32.10
19192;DHT22;9728;48.194;16.346;2022-09-03T18:10:08;31.20;32.20
19192;DHT22;9728;48.194;16.346;2022-09-03T18:15:17;31.20;32.50
19192;DHT22;9728;48.194;16.346;2022-09-03T18:20:23;31.20;32.50
19192;DHT22;9728;48.194;16.346;2022-09-03T18:25:49;31.10;32.40
19192;DHT22;9728;48.194;16.346;2022-09-03T18:31:14;31.00;32.20
19192;DHT22;9728;48.194;16.346;2022-09-03T18:36:36;31.00;32.10
19192;DHT22;9728;48.194;16.346;2022-09-03T18:42:06;30.90;32.10
19192;DHT22;9728;48.194;16.346;2022-09-03T18:47:43;30.70;32.30
19192;DHT22;9728;48.194;16.346;2022-09-03T18:53:23;30.60;32.50
19192;DHT22;9728;48.194;16.346;2022-09-03T18:58:58;30.50;32.50
19192;DHT22;9728;48.194;16.346;2022-09-03T19:04:33;30.40;32.80
19192;DHT22;9728;48.194;16.346;2022-09-03T19:10:02;30.30;33.50
19192;DHT22;9728;48.194;16.346;2022-09-03T19:15:28;30.20;33.80
19192;DHT22;9728;48.194;16.346;2022-09-03T19:21:02;30.20;34.20
19192;DHT22;9728;48.194;16.346;2022-09-03T19:26:30;30.20;34.50
19192;DHT22;9728;48.194;16.346;2022-09-03T19:31:59;30.20;34.80
19192;DHT22;9728;48.194;16.346;2022-09-03T19:37:28;30.20;34.60
19192;DHT22;9728;48.194;16.346;2022-09-03T19:42:58;30.20;34.50
19192;DHT22;9728;48.194;16.346;2022-09-03T19:48:34;30.20;34.80
19192;DHT22;9728;48.194;16.346;2022-09-03T19:53:58;30.10;35.10
19192;DHT22;9728;48.194;16.346;2022-09-03T19:59:22;30.10;35.00
19192;DHT22;9728;48.194;16.346;2022-09-03T20:04:50;30.10;34.80
19192;DHT22;9728;48.194;16.346;2022-09-03T20:10:15;30.10;35.30
19192;DHT22;9728;48.194;16.346;2022-09-03T20:15:28;30.10;35.30
19192;DHT22;9728;48.194;16.346;2022-09-03T20:20:44;30.10;35.30
19192;DHT22;9728;48.194;16.346;2022-09-03T20:26:00;30.00;35.60
19192;DHT22;9728;48.194;16.346;2022-09-03T20:31:18;30.00;35.60
19192;DHT22;9728;48.194;16.346;2022-09-03T20:36:32;30.00;35.60
19192;DHT22;9728;48.194;16.346;2022-09-03T20:41:48;30.00;36.50
19192;DHT22;9728;48.194;16.346;2022-09-03T20:47:03;29.90;36.50
19192;DHT22;9728;48.194;16.346;2022-09-03T20:52:15;29.90;36.70
19192;DHT22;9728;48.194;16.346;2022-09-03T20:57:32;29.90;36.90
19192;DHT22;9728;48.194;16.346;2022-09-03T21:03:01;29.90;37.30
19192;DHT22;9728;48.194;16.346;2022-09-03T21:08:16;29.90;37.20
19192;DHT22;9728;48.194;16.346;2022-09-03T21:13:31;29.90;36.90
19192;DHT22;9728;48.194;16.346;2022-09-03T21:18:46;29.90;37.20
19192;DHT22;9728;48.194;16.346;2022-09-03T21:24:03;29.90;37.00
19192;DHT22;9728;48.194;16.346;2022-09-03T21:29:12;29.90;37.10
19192;DHT22;9728;48.194;16.346;2022-09-03T21:34:28;29.90;36.80
19192;DHT22;9728;48.194;16.346;2022-09-03T21:39:41;29.80;36.80
19192;DHT22;9728;48.194;16.346;2022-09-03T21:44:51;29.80;36.90
19192;DHT22;9728;48.194;16.346;2022-09-03T21:50:01;29.80;37.00
19192;DHT22;9728;48.194;16.346;2022-09-03T21:55:18;29.70;36.80
19192;DHT22;9728;48.194;16.346;2022-09-03T22:00:25;29.80;37.10
19192;DHT22;9728;48.194;16.346;2022-09-03T22:05:40;29.80;37.00
19192;DHT22;9728;48.194;16.346;2022-09-03T22:10:55;29.70;37.20
19192;DHT22;9728;48.194;16.346;2022-09-03T22:16:05;29.70;37.20
19192;DHT22;9728;48.194;16.346;2022-09-03T22:21:18;29.70;37.30
19192;DHT22;9728;48.194;16.346;2022-09-03T22:26:30;29.70;37.40
19192;DHT22;9728;48.194;16.346;2022-09-03T22:31:50;29.70;37.60
19192;DHT22;9728;48.194;16.346;2022-09-03T22:37:01;29.70;37.70
19192;DHT22;9728;48.194;16.346;2022-09-03T22:47:51;29.70;37.90
19192;DHT22;9728;48.194;16.346;2022-09-03T22:53:09;29.70;37.80
19192;DHT22;9728;48.194;16.346;2022-09-03T22:58:19;29.70;38.00
19192;DHT22;9728;48.194;16.346;2022-09-03T23:03:28;29.70;38.00
19192;DHT22;9728;48.194;16.346;2022-09-03T23:08:42;29.80;37.80
19192;DHT22;9728;48.194;16.346;2022-09-03T23:13:55;29.80;37.90
19192;DHT22;9728;48.194;16.346;2022-09-03T23:19:07;29.80;38.20
19192;DHT22;9728;48.194;16.346;2022-09-03T23:24:23;29.70;38.10
19192;DHT22;9728;48.194;16.346;2022-09-03T23:29:33;29.70;38.10
19192;DHT22;9728;48.194;16.346;2022-09-03T23:34:38;29.70;38.20
19192;DHT22;9728;48.194;16.346;2022-09-03T23:39:57;29.70;37.80
19192;DHT22;9728;48.194;16.346;2022-09-03T23:45:15;29.70;38.30
19192;DHT22;9728;48.194;16.346;2022-09-03T23:50:28;29.60;38.30
19192;DHT22;9728;48.194;16.346;2022-09-03T23:55:41;29.60;38.30
